Time;durP1;ratioP1;P1;durP2;ratioP2;P2;SDS_P1;SDS_P2;PMS_P1;PMS_P2;Temp;Humidity;BMP_temperature;BMP_pressure;BME280_temperature;BME280_humidity;BME280_pressure;Samples;Min_cycle;Max_cycle;Signal;HPM_P1;HPM_P2
2022/05/06 00:02:25;;;;;;;20.77;10.20;;;;;;;;;;6293144;22;20015;-48
2022/05/06 00:04:51;;;;;;;27.02;10.95;;;;;;;;;;6297552;22;20250;-46
2022/05/06 00:07:17;;;;;;;25.45;11.52;;;;;;;;;;6295261;22;20107;-49
2022/05/06 00:09:44;;;;;;;22.73;11.18;;;;;;;;;;6297403;22;20090;-46
2022/05/06 00:12:10;;;;;;;27.95;11.82;;;;;;;;;;6268154;22;20042;-46
2022/05/06 00:14:35;;;;;;;22.38;9.60;;;;;;;;;;6296192;22;20249;-47
2022/05/06 00:17:02;;;;;;;31.35;10.77;;;;;;;;;;6296964;22;20838;-46
2022/05/06 00:19:27;;;;;;;27.10;12.10;;;;;;;;;;6268086;22;20027;-48
2022/05/06 00:21:52;;;;;;;24.75;11.95;;;;;;;;;;6297275;22;20030;-46
2022/05/06 00:24:18;;;;;;;23.65;11.13;;;;;;;;;;6267917;22;20010;-49
2022/05/06 00:26:43;;;;;;;31.13;11.02;;;;;;;;;;6297035;22;20531;-46
2022/05/06 00:29:09;;;;;;;22.33;10.18;;;;;;;;;;6296537;22;20011;-46
2022/05/06 00:31:34;;;;;;;21.15;10.38;;;;;;;;;;6296952;22;20752;-48
2022/05/06 00:34:00;;;;;;;26.83;11.82;;;;;;;;;;6296770;22;20030;-47
2022/05/06 00:36:25;;;;;;;22.20;11.48;;;;;;;;;;6295874;22;20037;-49
2022/05/06 00:38:50;;;;;;;25.70;11.65;;;;;;;;;;6297213;22;20062;-45
2022/05/06 00:41:16;;;;;;;22.33;11.15;;;;;;;;;;6296579;22;20003;-49
2022/05/06 00:43:41;;;;;;;24.52;12.00;;;;;;;;;;6295770;22;20007;-47
2022/05/06 00:46:25;;;;;;;26.85;10.50;;;;;;;;;;6297399;22;20018;-50
2022/05/06 00:48:50;;;;;;;22.08;11.38;;;;;;;;;;6296976;22;20012;-48
2022/05/06 00:51:17;;;;;;;28.95;11.05;;;;;;;;;;6295365;22;20017;-47
2022/05/06 00:53:43;;;;;;;31.20;11.27;;;;;;;;;;6297115;22;20075;-46
2022/05/06 00:56:09;;;;;;;28.90;12.27;;;;;;;;;;6296170;22;20026;-46
2022/05/06 00:58:34;;;;;;;19.48;10.38;;;;;;;;;;6297274;22;20027;-46
2022/05/06 01:01:04;;;;;;;21.13;9.98;;;;;;;;;;6296075;22;20022;-46
2022/05/06 01:03:30;;;;;;;21.63;11.02;;;;;;;;;;6297006;22;20012;-46
2022/05/06 01:05:55;;;;;;;19.75;10.73;;;;;;;;;;6295781;22;20063;-47
2022/05/06 01:08:20;;;;;;;19.23;10.35;;;;;;;;;;6296703;22;20349;-47
2022/05/06 01:10:46;;;;;;;28.95;12.10;;;;;;;;;;6295637;22;20018;-47
2022/05/06 01:13:11;;;;;;;25.02;11.63;;;;;;;;;;6293204;22;20205;-46
2022/05/06 01:15:38;;;;;;;25.08;11.55;;;;;;;;;;6295255;22;20024;-46
2022/05/06 01:18:03;;;;;;;30.30;13.52;;;;;;;;;;6297767;22;20454;-46
2022/05/06 01:20:29;;;;;;;28.48;13.15;;;;;;;;;;6294673;22;20322;-46
2022/05/06 01:22:58;;;;;;;35.50;13.55;;;;;;;;;;6296458;22;20011;-46
2022/05/06 01:25:24;;;;;;;26.67;12.25;;;;;;;;;;6295022;22;20016;-46
2022/05/06 01:27:55;;;;;;;26.10;13.00;;;;;;;;;;6297298;22;20042;-45
2022/05/06 01:30:40;;;;;;;28.55;12.63;;;;;;;;;;6295498;22;20018;-47
2022/05/06 01:33:09;;;;;;;28.85;14.23;;;;;;;;;;6298581;22;20015;-45
2022/05/06 01:35:45;;;;;;;29.10;14.18;;;;;;;;;;6297938;22;20011;-47
2022/05/06 01:38:31;;;;;;;42.55;14.73;;;;;;;;;;6296800;22;20015;-51
2022/05/06 01:41:02;;;;;;;28.52;14.05;;;;;;;;;;6298401;22;20017;-47
2022/05/06 01:43:32;;;;;;;31.20;14.43;;;;;;;;;;6292802;22;20011;-45
2022/05/06 01:45:59;;;;;;;37.13;15.85;;;;;;;;;;6299153;22;20015;-48
2022/05/06 01:48:25;;;;;;;33.03;16.73;;;;;;;;;;6296428;22;20037;-47
2022/05/06 01:50:51;;;;;;;32.00;15.27;;;;;;;;;;6298865;22;20019;-47
2022/05/06 01:53:17;;;;;;;27.52;14.55;;;;;;;;;;6296353;22;20104;-46
2022/05/06 01:55:44;;;;;;;34.58;15.88;;;;;;;;;;6299454;22;20023;-46
2022/05/06 01:58:09;;;;;;;31.70;15.68;;;;;;;;;;6297309;22;20106;-46
2022/05/06 02:00:37;;;;;;;37.03;16.13;;;;;;;;;;6297142;22;20011;-46
2022/05/06 02:03:03;;;;;;;28.52;14.77;;;;;;;;;;6295925;22;20625;-46
2022/05/06 02:05:28;;;;;;;28.95;14.68;;;;;;;;;;6297186;22;20011;-47
2022/05/06 02:07:54;;;;;;;36.75;15.10;;;;;;;;;;6297769;22;20019;-46
2022/05/06 02:10:20;;;;;;;37.42;16.10;;;;;;;;;;6298140;22;20018;-50
2022/05/06 02:12:46;;;;;;;26.08;13.23;;;;;;;;;;6297262;22;20023;-46
2022/05/06 02:15:11;;;;;;;30.65;13.80;;;;;;;;;;6297342;22;20027;-48
2022/05/06 02:17:38;;;;;;;31.17;13.57;;;;;;;;;;6296686;22;20765;-49
2022/05/06 02:20:04;;;;;;;28.42;13.52;;;;;;;;;;6298004;22;20019;-47
2022/05/06 02:22:29;;;;;;;27.80;11.68;;;;;;;;;;6295294;22;20892;-46
2022/05/06 02:24:55;;;;;;;30.42;12.95;;;;;;;;;;6298437;22;20022;-46
2022/05/06 02:27:20;;;;;;;35.75;13.25;;;;;;;;;;6294939;22;20015;-47
2022/05/06 02:35:13;;;;;;;33.63;13.73;;;;;;;;;;6294667;22;20034;-48
2022/05/06 02:37:40;;;;;;;28.38;15.00;;;;;;;;;;6298240;22;20011;-48
2022/05/06 02:40:07;;;;;;;32.03;13.13;;;;;;;;;;6290739;22;20427;-46
2022/05/06 02:42:32;;;;;;;26.55;13.10;;;;;;;;;;6296482;22;20007;-47
2022/05/06 02:44:57;;;;;;;20.92;11.07;;;;;;;;;;6297295;22;20015;-47
2022/05/06 02:47:22;;;;;;;22.83;12.85;;;;;;;;;;6296929;22;20084;-45
2022/05/06 02:49:47;;;;;;;30.13;13.95;;;;;;;;;;6296489;22;20035;-45
2022/05/06 02:52:13;;;;;;;24.20;12.73;;;;;;;;;;6296816;22;20023;-49
2022/05/06 02:54:38;;;;;;;24.27;12.23;;;;;;;;;;6267576;22;20019;-47
2022/05/06 02:57:04;;;;;;;27.85;11.52;;;;;;;;;;6297967;22;20003;-46
2022/05/06 02:59:31;;;;;;;24.55;11.73;;;;;;;;;;6297534;22;20022;-47
2022/05/06 03:01:56;;;;;;;27.58;11.93;;;;;;;;;;6297184;22;20702;-47
2022/05/06 03:04:21;;;;;;;20.40;11.88;;;;;;;;;;6296651;22;20023;-48
2022/05/06 03:06:47;;;;;;;24.17;11.90;;;;;;;;;;6269874;22;20557;-48
2022/05/06 03:09:13;;;;;;;21.05;11.77;;;;;;;;;;6268996;22;20015;-47
2022/05/06 03:11:38;;;;;;;27.40;10.50;;;;;;;;;;6296979;22;20022;-46
2022/05/06 03:14:03;;;;;;;24.67;11.07;;;;;;;;;;6295308;22;20038;-47
2022/05/06 03:16:30;;;;;;;21.42;12.02;;;;;;;;;;6296513;22;20586;-47
2022/05/06 03:18:56;;;;;;;22.73;10.25;;;;;;;;;;6295404;22;20019;-49
2022/05/06 03:21:21;;;;;;;22.92;10.75;;;;;;;;;;6296711;22;20016;-46
2022/05/06 03:23:50;;;;;;;24.20;11.23;;;;;;;;;;6295428;22;20011;-47
2022/05/06 03:26:15;;;;;;;24.25;11.57;;;;;;;;;;6297747;22;20011;-45
2022/05/06 03:28:41;;;;;;;23.80;10.35;;;;;;;;;;6296099;22;20023;-47
2022/05/06 03:31:06;;;;;;;22.48;11.90;;;;;;;;;;6297668;22;20026;-48
2022/05/06 03:33:32;;;;;;;18.95;9.75;;;;;;;;;;6294139;22;20012;-45
2022/05/06 03:35:58;;;;;;;21.60;10.18;;;;;;;;;;6298106;22;20015;-46
2022/05/06 03:38:23;;;;;;;19.70;10.60;;;;;;;;;;6294971;22;20100;-47
2022/05/06 03:40:48;;;;;;;19.23;10.98;;;;;;;;;;6297832;22;20820;-45
2022/05/06 03:43:14;;;;;;;18.42;9.40;;;;;;;;;;6294458;22;20022;-45
2022/05/06 03:45:39;;;;;;;18.30;9.07;;;;;;;;;;6270744;22;20019;-49
2022/05/06 03:48:05;;;;;;;22.48;9.77;;;;;;;;;;6295381;22;20007;-46
2022/05/06 03:53:14;;;;;;;20.83;9.57;;;;;;;;;;6286749;22;20034;-45
2022/05/06 03:55:40;;;;;;;18.30;9.20;;;;;;;;;;6296368;22;20063;-45
2022/05/06 03:58:05;;;;;;;19.05;8.93;;;;;;;;;;6297338;22;20011;-46
2022/05/06 04:00:30;;;;;;;17.02;8.65;;;;;;;;;;6295172;22;20076;-46
2022/05/06 04:02:55;;;;;;;13.90;8.18;;;;;;;;;;6295872;22;20437;-46
2022/05/06 04:05:21;;;;;;;22.65;9.73;;;;;;;;;;6296476;22;20031;-46
2022/05/06 04:07:46;;;;;;;14.70;7.85;;;;;;;;;;6296600;22;20009;-49
2022/05/06 04:10:11;;;;;;;21.58;9.02;;;;;;;;;;6295151;22;20042;-48
2022/05/06 04:12:37;;;;;;;21.48;9.30;;;;;;;;;;6296865;22;20027;-46
2022/05/06 04:15:03;;;;;;;19.23;9.18;;;;;;;;;;6295841;22;20031;-48
2022/05/06 04:17:28;;;;;;;19.00;7.68;;;;;;;;;;6296270;22;20016;-47
2022/05/06 04:25:21;;;;;;;15.50;9.40;;;;;;;;;;6295849;22;20033;-49
2022/05/06 04:27:47;;;;;;;16.40;8.15;;;;;;;;;;6297418;22;20044;-50
2022/05/06 04:30:12;;;;;;;15.02;8.48;;;;;;;;;;6294861;22;20014;-47
2022/05/06 04:32:38;;;;;;;24.23;9.82;;;;;;;;;;6296554;22;20054;-49
2022/05/06 04:35:05;;;;;;;17.17;8.38;;;;;;;;;;6296097;22;20526;-46
2022/05/06 04:37:31;;;;;;;19.17;9.40;;;;;;;;;;6296283;22;20049;-47
2022/05/06 04:39:56;;;;;;;15.05;8.43;;;;;;;;;;6296375;22;20017;-48
2022/05/06 04:42:22;;;;;;;17.05;8.25;;;;;;;;;;6295903;22;20094;-45
2022/05/06 04:44:47;;;;;;;14.43;9.00;;;;;;;;;;6295908;22;20015;-48
2022/05/06 04:47:12;;;;;;;17.35;10.25;;;;;;;;;;6296342;22;20007;-45
2022/05/06 04:49:37;;;;;;;15.98;9.50;;;;;;;;;;6295886;22;20019;-45
2022/05/06 04:52:03;;;;;;;17.95;8.95;;;;;;;;;;6298698;22;20026;-46
2022/05/06 04:54:28;;;;;;;20.58;9.20;;;;;;;;;;6294469;22;20063;-48
2022/05/06 04:56:54;;;;;;;14.07;8.18;;;;;;;;;;6297835;22;20069;-47
2022/05/06 04:59:22;;;;;;;19.50;8.43;;;;;;;;;;6294612;22;20131;-48
2022/05/06 05:01:47;;;;;;;19.33;7.75;;;;;;;;;;6297764;22;20041;-48
2022/05/06 05:04:12;;;;;;;16.35;6.97;;;;;;;;;;6293513;22;20058;-48
2022/05/06 05:06:38;;;;;;;13.93;7.60;;;;;;;;;;6299478;22;20042;-45
2022/05/06 05:09:03;;;;;;;16.77;7.53;;;;;;;;;;6297401;22;20019;-47
2022/05/06 05:11:29;;;;;;;16.77;7.97;;;;;;;;;;6298342;22;20015;-45
2022/05/06 05:13:54;;;;;;;11.52;6.82;;;;;;;;;;6297567;22;20075;-47
2022/05/06 05:16:19;;;;;;;14.05;8.07;;;;;;;;;;6297289;22;20350;-45
2022/05/06 05:18:45;;;;;;;17.50;7.68;;;;;;;;;;6297825;22;20015;-47
2022/05/06 05:21:10;;;;;;;24.75;7.95;;;;;;;;;;6298676;22;20034;-46
2022/05/06 05:23:36;;;;;;;13.60;7.57;;;;;;;;;;6297688;22;20064;-46
2022/05/06 05:26:01;;;;;;;17.77;7.72;;;;;;;;;;6298761;22;20015;-48
2022/05/06 05:28:27;;;;;;;15.27;7.78;;;;;;;;;;6298329;22;20040;-48
2022/05/06 05:30:52;;;;;;;12.88;7.03;;;;;;;;;;6294943;22;20011;-47
2022/05/06 05:33:17;;;;;;;18.42;7.53;;;;;;;;;;6295018;22;20037;-48
2022/05/06 05:35:42;;;;;;;20.40;7.38;;;;;;;;;;6295148;22;20021;-46
2022/05/06 05:38:09;;;;;;;17.20;7.50;;;;;;;;;;6296452;22;20011;-47
2022/05/06 05:40:34;;;;;;;14.32;6.57;;;;;;;;;;6294355;22;20486;-46
2022/05/06 05:42:59;;;;;;;11.38;6.72;;;;;;;;;;6296239;22;20045;-47
2022/05/06 05:48:21;;;;;;;15.45;7.22;;;;;;;;;;6294803;22;20042;-44
2022/05/06 05:50:47;;;;;;;11.68;6.25;;;;;;;;;;6295489;22;20011;-45
2022/05/06 05:53:12;;;;;;;12.75;6.85;;;;;;;;;;6292982;22;20034;-47
2022/05/06 05:55:38;;;;;;;12.30;6.05;;;;;;;;;;6296482;22;20019;-45
2022/05/06 05:58:03;;;;;;;18.38;8.07;;;;;;;;;;6295518;22;20030;-45
2022/05/06 06:00:28;;;;;;;13.18;7.20;;;;;;;;;;6294938;22;20664;-47
2022/05/06 06:02:54;;;;;;;13.90;6.05;;;;;;;;;;6293080;22;20042;-45
2022/05/06 06:05:20;;;;;;;10.23;5.32;;;;;;;;;;6295296;22;20045;-45
2022/05/06 06:07:45;;;;;;;17.05;4.90;;;;;;;;;;6294250;22;20116;-47
2022/05/06 06:10:10;;;;;;;12.15;5.32;;;;;;;;;;6295360;22;20015;-44
2022/05/06 06:12:35;;;;;;;10.48;6.28;;;;;;;;;;6293555;22;20411;-46
2022/05/06 06:15:01;;;;;;;16.00;6.05;;;;;;;;;;6268459;22;20042;-46
2022/05/06 06:17:27;;;;;;;14.57;6.22;;;;;;;;;;6264975;22;20617;-47
2022/05/06 06:19:52;;;;;;;10.85;5.25;;;;;;;;;;6296197;22;20007;-45
2022/05/06 06:22:17;;;;;;;10.48;5.93;;;;;;;;;;6292860;22;20026;-44
2022/05/06 06:24:42;;;;;;;8.98;5.43;;;;;;;;;;6296267;22;20014;-45
2022/05/06 06:27:08;;;;;;;9.50;5.43;;;;;;;;;;6293803;22;20279;-47
2022/05/06 06:29:35;;;;;;;12.13;5.20;;;;;;;;;;6294913;22;20022;-45
2022/05/06 06:32:01;;;;;;;10.77;5.18;;;;;;;;;;6293854;22;20029;-46
2022/05/06 06:34:26;;;;;;;17.98;5.50;;;;;;;;;;6295923;22;20039;-45
2022/05/06 06:36:51;;;;;;;13.55;6.03;;;;;;;;;;6295958;22;20033;-46
2022/05/06 06:39:16;;;;;;;10.32;4.93;;;;;;;;;;6297315;22;20026;-48
2022/05/06 06:41:42;;;;;;;11.52;4.90;;;;;;;;;;6296271;22;20011;-45
2022/05/06 06:44:07;;;;;;;9.98;5.03;;;;;;;;;;6297877;22;20011;-46
2022/05/06 06:46:33;;;;;;;6.80;4.55;;;;;;;;;;6295694;22;20047;-46
2022/05/06 06:48:58;;;;;;;8.80;4.97;;;;;;;;;;6299178;22;20018;-45
2022/05/06 06:51:23;;;;;;;8.68;5.93;;;;;;;;;;6295746;22;20026;-45
2022/05/06 06:53:50;;;;;;;8.90;5.05;;;;;;;;;;6298853;22;20822;-44
2022/05/06 06:56:15;;;;;;;11.57;5.30;;;;;;;;;;6292810;22;20015;-48
2022/05/06 06:58:40;;;;;;;9.75;4.90;;;;;;;;;;6262496;22;20063;-46
2022/05/06 07:01:05;;;;;;;12.85;5.65;;;;;;;;;;6290005;22;20069;-47
2022/05/06 07:03:31;;;;;;;15.95;5.82;;;;;;;;;;6290396;22;20038;-45
2022/05/06 07:14:08;;;;;;;9.38;4.97;;;;;;;;;;6290950;22;20025;-45
2022/05/06 07:16:35;;;;;;;9.10;5.00;;;;;;;;;;6290740;22;20047;-46
2022/05/06 07:19:00;;;;;;;10.45;5.25;;;;;;;;;;6292742;22;20086;-44
2022/05/06 07:21:25;;;;;;;9.70;6.47;;;;;;;;;;6284819;22;20018;-47
2022/05/06 07:23:50;;;;;;;10.50;5.88;;;;;;;;;;6296869;22;20027;-44
2022/05/06 07:26:16;;;;;;;9.85;6.10;;;;;;;;;;6296607;22;20098;-47
2022/05/06 07:28:41;;;;;;;15.55;5.47;;;;;;;;;;6291028;22;20027;-45
2022/05/06 07:31:06;;;;;;;10.07;5.45;;;;;;;;;;6296425;22;20042;-46
2022/05/06 07:33:32;;;;;;;12.38;5.40;;;;;;;;;;6296664;22;20192;-46
2022/05/06 07:35:57;;;;;;;11.65;6.15;;;;;;;;;;6294410;22;20022;-45
2022/05/06 07:38:22;;;;;;;10.82;5.88;;;;;;;;;;6296900;22;20003;-46
2022/05/06 07:40:48;;;;;;;9.98;5.45;;;;;;;;;;6295008;22;20015;-45
2022/05/06 07:43:14;;;;;;;12.82;5.80;;;;;;;;;;6291235;22;20469;-46
2022/05/06 07:45:40;;;;;;;12.15;5.35;;;;;;;;;;6296752;22;20026;-47
2022/05/06 07:48:08;;;;;;;10.43;5.43;;;;;;;;;;6296605;22;20066;-45
2022/05/06 07:50:33;;;;;;;14.43;5.72;;;;;;;;;;6264907;22;20015;-46
2022/05/06 07:52:59;;;;;;;13.60;7.18;;;;;;;;;;6291444;22;20026;-46
2022/05/06 07:55:24;;;;;;;18.85;6.75;;;;;;;;;;6291924;22;20076;-49
2022/05/06 07:57:50;;;;;;;12.00;5.97;;;;;;;;;;6263335;22;20019;-47
2022/05/06 08:00:15;;;;;;;10.45;5.97;;;;;;;;;;6291774;22;20011;-47
2022/05/06 08:05:27;;;;;;;9.27;5.38;;;;;;;;;;6291914;22;20084;-46
2022/05/06 08:07:53;;;;;;;7.43;4.80;;;;;;;;;;6291626;22;20007;-47
2022/05/06 08:10:19;;;;;;;14.43;7.43;;;;;;;;;;6292810;22;20035;-47
2022/05/06 08:12:44;;;;;;;12.65;5.72;;;;;;;;;;6292125;22;20037;-46
2022/05/06 08:15:10;;;;;;;14.52;5.88;;;;;;;;;;6289470;22;20127;-48
2022/05/06 08:17:37;;;;;;;11.25;5.53;;;;;;;;;;6281203;22;20015;-45
2022/05/06 08:20:04;;;;;;;11.82;4.88;;;;;;;;;;6295339;22;20069;-46
2022/05/06 08:22:30;;;;;;;13.50;6.43;;;;;;;;;;6293506;22;20084;-44
2022/05/06 08:24:56;;;;;;;13.18;6.68;;;;;;;;;;6296468;22;20015;-45
2022/05/06 08:27:22;;;;;;;8.23;5.78;;;;;;;;;;6261152;22;20015;-49
2022/05/06 08:29:47;;;;;;;9.45;5.65;;;;;;;;;;6291775;22;20345;-46
2022/05/06 08:32:12;;;;;;;11.35;5.55;;;;;;;;;;6258427;22;20027;-46
2022/05/06 08:34:37;;;;;;;9.10;5.00;;;;;;;;;;6266524;22;20031;-46
2022/05/06 08:37:03;;;;;;;9.65;5.13;;;;;;;;;;6280281;22;20004;-47
2022/05/06 08:39:28;;;;;;;9.05;5.47;;;;;;;;;;6284070;22;20026;-49
2022/05/06 08:41:54;;;;;;;8.88;5.22;;;;;;;;;;6291865;22;20015;-44
2022/05/06 08:52:32;;;;;;;9.68;4.57;;;;;;;;;;6296970;22;20141;-47
2022/05/06 08:54:59;;;;;;;6.88;3.92;;;;;;;;;;6298771;22;20023;-48
2022/05/06 08:57:24;;;;;;;8.98;5.07;;;;;;;;;;6296390;22;20194;-47
2022/05/06 08:59:51;;;;;;;8.15;4.20;;;;;;;;;;6270431;22;20019;-45
2022/05/06 09:02:16;;;;;;;10.85;5.05;;;;;;;;;;6296627;22;20071;-46
2022/05/06 09:04:41;;;;;;;7.07;4.00;;;;;;;;;;6270294;22;20011;-47
2022/05/06 09:07:19;;;;;;;5.97;3.65;;;;;;;;;;6294070;22;20022;-45
2022/05/06 09:10:04;;;;;;;8.02;4.40;;;;;;;;;;6296759;22;20011;-45
2022/05/06 09:12:42;;;;;;;8.50;5.07;;;;;;;;;;6290208;22;20016;-46
2022/05/06 09:17:53;;;;;;;12.13;4.97;;;;;;;;;;6293624;22;20068;-45
2022/05/06 09:20:19;;;;;;;6.97;4.55;;;;;;;;;;6298514;22;20015;-45
2022/05/06 09:22:44;;;;;;;11.82;4.72;;;;;;;;;;6296160;22;20016;-48
2022/05/06 09:25:10;;;;;;;7.80;5.15;;;;;;;;;;6298379;22;20004;-48
2022/05/06 09:27:35;;;;;;;13.60;5.55;;;;;;;;;;6288813;22;20011;-49
2022/05/06 09:30:05;;;;;;;6.72;3.85;;;;;;;;;;6281556;22;20018;-46
2022/05/06 09:32:31;;;;;;;9.98;5.18;;;;;;;;;;6292195;22;20461;-47
2022/05/06 09:34:59;;;;;;;8.10;4.95;;;;;;;;;;6268201;22;20067;-45
2022/05/06 09:37:38;;;;;;;10.27;5.00;;;;;;;;;;6296825;22;20071;-47
2022/05/06 09:40:04;;;;;;;8.73;5.18;;;;;;;;;;6295718;22;20386;-47
2022/05/06 09:42:30;;;;;;;13.90;6.60;;;;;;;;;;6297563;22;20011;-45
2022/05/06 09:44:55;;;;;;;7.82;4.90;;;;;;;;;;6269005;22;20039;-45
2022/05/06 09:47:20;;;;;;;10.20;5.13;;;;;;;;;;6297602;22;20111;-50
2022/05/06 09:49:46;;;;;;;9.15;5.13;;;;;;;;;;6296650;22;20011;-46
2022/05/06 09:52:11;;;;;;;6.63;4.18;;;;;;;;;;6296673;22;20060;-48
2022/05/06 09:54:38;;;;;;;8.38;5.30;;;;;;;;;;6268954;22;20011;-47
2022/05/06 09:57:04;;;;;;;6.63;4.28;;;;;;;;;;6297538;22;20015;-47
2022/05/06 09:59:30;;;;;;;6.85;4.38;;;;;;;;;;6295053;22;20499;-46
2022/05/06 10:01:55;;;;;;;10.07;5.00;;;;;;;;;;6298307;22;20016;-46
2022/05/06 10:04:20;;;;;;;8.75;4.10;;;;;;;;;;6295316;22;20770;-46
2022/05/06 10:06:46;;;;;;;9.40;4.05;;;;;;;;;;6299235;22;20035;-48
2022/05/06 10:09:11;;;;;;;7.68;5.15;;;;;;;;;;6266781;22;20539;-47
2022/05/06 10:11:38;;;;;;;10.25;5.45;;;;;;;;;;6270015;22;20015;-46
2022/05/06 10:14:05;;;;;;;9.85;4.55;;;;;;;;;;6295740;22;20015;-46
2022/05/06 10:16:34;;;;;;;4.78;3.65;;;;;;;;;;6295416;22;20031;-45
2022/05/06 10:19:00;;;;;;;7.63;4.78;;;;;;;;;;6296928;22;20018;-45
2022/05/06 10:21:45;;;;;;;8.23;4.47;;;;;;;;;;6298540;22;20250;-46
2022/05/06 10:24:15;;;;;;;8.75;4.07;;;;;;;;;;6295290;22;20015;-48
2022/05/06 10:26:40;;;;;;;;;;;;;;;;;;6298832;22;20011;-45
2022/05/06 10:34:54;;;;;;;10.43;4.90;;;;;;;;;;6296883;22;20580;-48
2022/05/06 10:37:19;;;;;;;8.52;5.25;;;;;;;;;;6296317;22;20067;-49
2022/05/06 10:39:45;;;;;;;7.18;4.63;;;;;;;;;;6291204;22;20031;-47
2022/05/06 10:42:17;;;;;;;10.32;5.78;;;;;;;;;;6296829;22;20072;-45
2022/05/06 10:44:45;;;;;;;9.93;5.70;;;;;;;;;;6295077;22;20011;-46
2022/05/06 10:47:10;;;;;;;12.97;5.60;;;;;;;;;;6297249;22;20007;-47
2022/05/06 10:49:39;;;;;;;9.32;5.50;;;;;;;;;;6296775;22;20022;-46
2022/05/06 10:52:14;;;;;;;10.18;5.53;;;;;;;;;;6298097;22;20019;-45
2022/05/06 10:54:39;;;;;;;9.77;4.63;;;;;;;;;;6296472;22;20075;-47
2022/05/06 10:57:05;;;;;;;12.60;5.82;;;;;;;;;;6297638;22;20012;-46
2022/05/06 10:59:49;;;;;;;6.75;4.55;;;;;;;;;;6295836;22;20406;-45
2022/05/06 11:02:16;;;;;;;9.27;5.05;;;;;;;;;;6295930;22;20180;-46
2022/05/06 11:04:41;;;;;;;8.55;4.93;;;;;;;;;;6296691;22;20011;-45
2022/05/06 11:07:10;;;;;;;11.15;4.93;;;;;;;;;;6296405;22;20072;-48
2022/05/06 11:09:35;;;;;;;10.90;5.70;;;;;;;;;;6294412;22;20045;-48
2022/05/06 11:12:00;;;;;;;8.32;4.43;;;;;;;;;;6297308;22;20086;-47
2022/05/06 11:14:26;;;;;;;6.03;3.90;;;;;;;;;;6295135;22;20774;-45
2022/05/06 11:16:51;;;;;;;9.57;4.55;;;;;;;;;;6296656;22;20047;-48
2022/05/06 11:19:33;;;;;;;7.47;4.20;;;;;;;;;;6294585;22;20056;-46
2022/05/06 11:22:07;;;;;;;6.03;3.95;;;;;;;;;;6297250;22;20022;-48
2022/05/06 11:24:33;;;;;;;4.75;3.30;;;;;;;;;;6293725;22;20067;-45
2022/05/06 11:27:31;;;;;;;6.65;3.47;;;;;;;;;;6296413;22;20101;-47
2022/05/06 11:29:57;;;;;;;5.88;3.50;;;;;;;;;;6227640;22;20375;-48
2022/05/06 11:32:23;;;;;;;8.93;3.78;;;;;;;;;;6296897;22;20019;-46
2022/05/06 11:34:57;;;;;;;9.20;4.50;;;;;;;;;;6294524;22;20062;-47
2022/05/06 11:37:23;;;;;;;6.35;3.63;;;;;;;;;;6296966;22;20019;-46
2022/05/06 11:39:49;;;;;;;10.88;4.13;;;;;;;;;;6294774;22;20014;-49
2022/05/06 11:42:23;;;;;;;9.07;3.78;;;;;;;;;;6278715;22;20038;-47
2022/05/06 11:47:42;;;;;;;4.45;3.08;;;;;;;;;;6294720;22;20019;-46
2022/05/06 11:50:09;;;;;;;9.13;4.47;;;;;;;;;;6297351;22;20403;-44
2022/05/06 11:52:34;;;;;;;8.25;5.15;;;;;;;;;;6295300;22;20533;-45
2022/05/06 11:55:00;;;;;;;6.53;3.92;;;;;;;;;;6297193;22;20034;-45
2022/05/06 11:57:26;;;;;;;4.68;3.28;;;;;;;;;;6267730;22;20385;-47
2022/05/06 11:59:51;;;;;;;7.07;4.35;;;;;;;;;;6296941;22;20038;-46
2022/05/06 12:02:16;;;;;;;8.25;4.90;;;;;;;;;;6282754;22;20011;-47
2022/05/06 12:04:41;;;;;;;4.75;3.28;;;;;;;;;;6287824;22;20008;-45
2022/05/06 12:07:07;;;;;;;14.23;4.28;;;;;;;;;;6296813;22;20015;-45
2022/05/06 12:09:41;;;;;;;8.88;4.20;;;;;;;;;;6285919;22;20015;-45
2022/05/06 12:12:07;;;;;;;8.05;4.18;;;;;;;;;;6292163;22;20019;-45
2022/05/06 12:14:33;;;;;;;5.07;3.53;;;;;;;;;;6295872;22;20700;-46
2022/05/06 12:16:59;;;;;;;7.78;3.50;;;;;;;;;;6295440;22;20644;-44
2022/05/06 12:19:40;;;;;;;7.22;2.85;;;;;;;;;;6295482;22;20830;-43
2022/05/06 12:22:07;;;;;;;9.85;2.92;;;;;;;;;;6296892;22;20609;-43
2022/05/06 12:24:39;;;;;;;5.38;2.55;;;;;;;;;;6295374;22;20015;-48
2022/05/06 12:27:04;;;;;;;3.38;2.47;;;;;;;;;;6296568;22;20015;-45
2022/05/06 12:29:34;;;;;;;3.40;2.38;;;;;;;;;;6295828;22;20013;-44
2022/05/06 12:32:00;;;;;;;6.57;2.42;;;;;;;;;;6297488;22;20028;-44
2022/05/06 12:34:29;;;;;;;4.53;2.17;;;;;;;;;;6296853;22;20033;-45
2022/05/06 12:37:07;;;;;;;3.40;2.50;;;;;;;;;;6294998;22;20011;-45
2022/05/06 12:39:37;;;;;;;2.25;1.85;;;;;;;;;;6297209;22;20232;-47
2022/05/06 12:42:10;;;;;;;2.55;2.00;;;;;;;;;;6295632;22;20450;-45
2022/05/06 12:44:36;;;;;;;3.60;2.22;;;;;;;;;;6296046;22;20024;-45
2022/05/06 12:47:13;;;;;;;4.97;2.42;;;;;;;;;;6296559;22;20094;-45
2022/05/06 12:49:42;;;;;;;3.13;1.92;;;;;;;;;;6293687;22;20016;-43
2022/05/06 12:52:10;;;;;;;6.40;2.30;;;;;;;;;;6296442;22;20028;-48
2022/05/06 12:54:36;;;;;;;4.77;2.10;;;;;;;;;;6294468;22;20008;-44
2022/05/06 12:57:02;;;;;;;3.00;1.60;;;;;;;;;;6269818;22;20065;-46
2022/05/06 12:59:28;;;;;;;2.75;1.77;;;;;;;;;;6292415;22;20022;-46
2022/05/06 13:01:54;;;;;;;3.42;2.22;;;;;;;;;;6292450;22;20086;-44
2022/05/06 13:04:19;;;;;;;3.40;1.95;;;;;;;;;;6293383;22;20566;-44
2022/05/06 13:06:45;;;;;;;1.63;1.30;;;;;;;;;;6269372;22;20042;-45
2022/05/06 13:09:10;;;;;;;2.92;1.88;;;;;;;;;;6293565;22;20091;-51
2022/05/06 13:11:35;;;;;;;2.97;1.33;;;;;;;;;;6296560;22;20433;-45
2022/05/06 13:14:01;;;;;;;2.08;1.00;;;;;;;;;;6295066;22;20019;-44
2022/05/06 13:16:27;;;;;;;2.17;1.48;;;;;;;;;;6295149;22;20036;-47
2022/05/06 13:18:53;;;;;;;2.13;1.20;;;;;;;;;;6295333;22;20015;-47
2022/05/06 13:21:18;;;;;;;2.25;1.00;;;;;;;;;;6296108;22;20045;-46
2022/05/06 13:23:44;;;;;;;1.63;0.93;;;;;;;;;;6294851;22;20011;-48
2022/05/06 13:26:09;;;;;;;2.75;1.20;;;;;;;;;;6297210;22;20363;-45
2022/05/06 13:28:34;;;;;;;1.20;1.10;;;;;;;;;;6295645;22;20019;-45
2022/05/06 13:31:00;;;;;;;1.92;1.00;;;;;;;;;;6298687;22;20015;-47
2022/05/06 13:33:26;;;;;;;1.42;1.25;;;;;;;;;;6296353;22;20034;-44
2022/05/06 13:35:52;;;;;;;1.25;1.13;;;;;;;;;;6298714;22;20415;-45
2022/05/06 13:38:18;;;;;;;4.22;1.80;;;;;;;;;;6296320;22;20353;-46
2022/05/06 13:40:46;;;;;;;3.50;1.80;;;;;;;;;;6298500;22;20011;-45
2022/05/06 13:43:11;;;;;;;4.00;1.85;;;;;;;;;;6294392;22;20015;-47
2022/05/06 13:45:36;;;;;;;3.85;1.40;;;;;;;;;;6297852;22;20046;-48
2022/05/06 13:48:02;;;;;;;14.18;2.83;;;;;;;;;;6298114;22;20014;-43
2022/05/06 13:50:27;;;;;;;4.32;1.85;;;;;;;;;;6298103;22;20071;-46
2022/05/06 13:52:52;;;;;;;3.85;2.25;;;;;;;;;;6297446;22;20667;-45
2022/05/06 13:55:18;;;;;;;5.93;2.20;;;;;;;;;;6296876;22;20076;-45
2022/05/06 14:00:29;;;;;;;4.35;1.60;;;;;;;;;;6298017;22;20025;-45
2022/05/06 14:02:54;;;;;;;3.63;1.60;;;;;;;;;;6288933;22;20349;-45
2022/05/06 14:05:19;;;;;;;2.67;1.58;;;;;;;;;;6297085;22;20015;-44
2022/05/06 14:07:45;;;;;;;3.67;1.90;;;;;;;;;;6296634;22;20037;-46
2022/05/06 14:10:10;;;;;;;2.85;1.23;;;;;;;;;;6298134;22;20608;-45
2022/05/06 14:12:36;;;;;;;3.53;1.55;;;;;;;;;;6295937;22;20030;-44
2022/05/06 14:15:02;;;;;;;10.88;1.60;;;;;;;;;;6298743;22;20229;-44
2022/05/06 14:17:27;;;;;;;3.60;1.23;;;;;;;;;;6295408;22;20475;-48
2022/05/06 14:19:53;;;;;;;2.97;1.63;;;;;;;;;;6295796;22;20273;-47
2022/05/06 14:22:18;;;;;;;4.43;1.52;;;;;;;;;;6295476;22;20011;-46
2022/05/06 14:24:45;;;;;;;2.10;1.48;;;;;;;;;;6298411;22;20019;-49
2022/05/06 14:27:11;;;;;;;2.47;1.33;;;;;;;;;;6295285;22;20528;-45
2022/05/06 14:29:36;;;;;;;2.97;1.95;;;;;;;;;;6297559;22;20012;-47
2022/05/06 14:32:01;;;;;;;4.18;2.08;;;;;;;;;;6268471;22;20015;-43
2022/05/06 14:34:27;;;;;;;1.27;1.17;;;;;;;;;;6297939;22;20038;-49
2022/05/06 14:36:52;;;;;;;1.70;1.55;;;;;;;;;;6295579;22;20011;-45
2022/05/06 14:39:17;;;;;;;5.60;1.92;;;;;;;;;;6296296;22;20015;-45
2022/05/06 14:41:42;;;;;;;3.75;1.98;;;;;;;;;;6296213;22;20016;-45
2022/05/06 14:44:08;;;;;;;2.03;1.52;;;;;;;;;;6298482;22;20007;-44
2022/05/06 14:46:33;;;;;;;2.55;1.38;;;;;;;;;;6295601;22;20022;-44
2022/05/06 14:48:58;;;;;;;1.48;1.38;;;;;;;;;;6296003;22;20008;-45
2022/05/06 14:51:25;;;;;;;4.22;1.48;;;;;;;;;;6296525;22;20059;-45
2022/05/06 14:53:50;;;;;;;2.90;1.58;;;;;;;;;;6294520;22;20524;-47
2022/05/06 14:56:16;;;;;;;3.45;1.40;;;;;;;;;;6292953;22;20008;-45
2022/05/06 14:58:41;;;;;;;5.10;1.80;;;;;;;;;;6296815;22;20025;-45
2022/05/06 15:01:08;;;;;;;1.55;1.45;;;;;;;;;;6260160;22;20020;-46
2022/05/06 15:03:34;;;;;;;1.05;0.95;;;;;;;;;;6294571;22;20018;-44
2022/05/06 15:06:02;;;;;;;1.13;1.00;;;;;;;;;;6297971;22;20019;-44
2022/05/06 15:08:27;;;;;;;2.75;1.98;;;;;;;;;;6294998;22;20019;-46
2022/05/06 15:10:52;;;;;;;3.42;1.90;;;;;;;;;;6294420;22;20015;-44
2022/05/06 15:13:18;;;;;;;5.60;2.47;;;;;;;;;;6294518;22;20708;-43
2022/05/06 15:15:43;;;;;;;5.85;1.90;;;;;;;;;;6292616;22;20292;-45
2022/05/06 15:20:52;;;;;;;2.80;1.80;;;;;;;;;;6286699;22;20014;-45
2022/05/06 15:23:18;;;;;;;3.97;2.40;;;;;;;;;;6284104;22;20119;-45